Time;durP1;ratioP1;P1;durP2;ratioP2;P2;SDS_P1;SDS_P2;PMS_P1;PMS_P2;Temp;Humidity;BMP_temperature;BMP_pressure;BME280_temperature;BME280_humidity;BME280_pressure;Samples;Min_cycle;Max_cycle;Signal;HPM_P1;HPM_P2
2022/01/25 00:28:41;;;;;;;51.17;32.20;;;5.00;99.90;;;;;;5045065;28;20377;-64
2022/01/25 00:31:12;;;;;;;55.25;32.70;;;5.00;99.90;;;;;;5043919;28;20049;-64
2022/01/25 00:33:41;;;;;;;52.10;33.00;;;5.00;99.90;;;;;;5044754;28;20064;-64
2022/01/25 00:36:10;;;;;;;54.65;32.83;;;5.00;99.90;;;;;;5044998;28;20049;-64
2022/01/25 00:38:36;;;;;;;55.50;33.22;;;5.00;99.90;;;;;;5042985;28;20037;-65
2022/01/25 00:41:02;;;;;;;53.28;31.38;;;5.00;99.90;;;;;;5043509;28;20137;-64
2022/01/25 00:43:28;;;;;;;56.25;33.72;;;5.00;99.90;;;;;;5044878;28;20475;-64
2022/01/25 00:45:58;;;;;;;51.72;32.42;;;5.00;99.90;;;;;;5032547;28;20045;-64
2022/01/25 00:54:00;;;;;;;54.40;32.75;;;4.90;99.90;;;;;;5044250;28;20088;-64
2022/01/25 00:56:36;;;;;;;53.47;32.00;;;4.90;99.90;;;;;;5043328;28;20112;-64
2022/01/25 00:59:08;;;;;;;55.78;32.60;;;4.90;99.90;;;;;;5044215;28;20089;-64
2022/01/25 01:01:36;;;;;;;56.67;32.97;;;4.90;99.90;;;;;;5057418;28;20381;-65
2022/01/25 01:04:04;;;;;;;51.33;32.17;;;4.90;99.90;;;;;;5062885;28;20049;-64
2022/01/25 01:06:29;;;;;;;56.55;33.65;;;4.90;99.90;;;;;;5064656;28;20081;-64
2022/01/25 01:08:56;;;;;;;49.38;33.22;;;4.90;99.90;;;;;;5064020;28;20049;-65
2022/01/25 01:11:33;;;;;;;53.22;32.78;;;4.90;99.90;;;;;;5062773;28;20055;-64
2022/01/25 01:14:07;;;;;;;57.35;32.88;;;4.90;99.90;;;;;;5039091;28;20070;-64
2022/01/25 01:30:12;;;;;;;;;;;;;;;;;;;;;
2022/01/25 01:43:20;;;;;;;57.38;33.15;;;4.90;99.90;;;;;;5042085;28;20075;-64
2022/01/25 01:48:34;;;;;;;57.97;34.00;;;4.80;99.90;;;;;;5043448;28;20056;-64
2022/01/25 01:51:15;;;;;;;58.83;33.92;;;4.90;99.90;;;;;;5041999;28;20057;-64
2022/01/25 01:53:42;;;;;;;57.00;33.30;;;4.90;99.90;;;;;;5043302;28;20049;-64
2022/01/25 01:56:07;;;;;;;57.08;35.67;;;4.90;99.90;;;;;;5042120;28;20050;-64
2022/01/25 01:58:37;;;;;;;53.72;32.13;;;4.80;99.90;;;;;;5043310;28;20053;-64
2022/01/25 02:01:06;;;;;;;55.50;33.00;;;4.80;99.90;;;;;;5042035;28;20057;-64
2022/01/25 02:03:32;;;;;;;55.63;33.47;;;4.80;99.90;;;;;;5043060;28;20081;-64
2022/01/25 02:05:57;;;;;;;63.13;33.72;;;4.80;99.90;;;;;;5043502;28;20042;-64
2022/01/25 02:08:23;;;;;;;54.37;33.40;;;4.80;99.90;;;;;;5042990;28;20057;-65
2022/01/25 02:10:49;;;;;;;58.33;32.55;;;4.80;99.90;;;;;;5041812;28;20415;-65
2022/01/25 02:13:15;;;;;;;52.87;33.13;;;4.80;99.90;;;;;;5042503;28;20102;-64
2022/01/25 02:15:45;;;;;;;62.38;33.88;;;4.80;99.90;;;;;;5042808;28;20488;-64
2022/01/25 02:23:36;;;;;;;56.50;33.65;;;4.70;99.90;;;;;;5027528;28;20061;-64
2022/01/25 02:26:04;;;;;;;53.95;33.75;;;4.80;99.90;;;;;;5027744;28;20053;-64
2022/01/25 02:28:33;;;;;;;60.65;34.88;;;4.80;99.90;;;;;;5036905;28;20080;-64
2022/01/25 02:31:00;;;;;;;51.47;31.88;;;4.80;99.90;;;;;;5043125;28;20114;-64
2022/01/25 02:33:27;;;;;;;56.15;33.85;;;4.80;99.90;;;;;;5042719;28;20093;-65
2022/01/25 02:35:55;;;;;;;56.33;34.03;;;4.70;99.90;;;;;;5055682;28;20116;-64
2022/01/25 02:38:25;;;;;;;55.00;33.33;;;4.80;99.90;;;;;;5048273;28;20049;-65
2022/01/25 02:40:51;;;;;;;53.63;32.78;;;4.80;99.90;;;;;;5041543;28;20087;-64
2022/01/25 02:43:19;;;;;;;59.70;34.67;;;4.70;99.90;;;;;;5024747;28;20065;-64
2022/01/25 02:46:20;;;;;;;56.83;33.25;;;4.80;99.90;;;;;;5031313;28;20353;-64
2022/01/25 02:49:01;;;;;;;61.63;35.05;;;4.70;99.90;;;;;;5036794;28;20041;-64
2022/01/25 02:51:45;;;;;;;55.25;33.92;;;4.70;99.90;;;;;;5041392;28;20049;-64
2022/01/25 02:54:12;;;;;;;56.05;35.17;;;4.70;99.90;;;;;;5020842;28;20105;-64
2022/01/25 02:56:40;;;;;;;51.00;31.88;;;4.70;99.90;;;;;;5037883;28;20054;-64
2022/01/25 02:59:06;;;;;;;59.10;35.10;;;4.80;99.90;;;;;;5037442;28;20086;-65
2022/01/25 03:01:33;;;;;;;57.28;33.83;;;4.80;99.90;;;;;;5055902;28;20053;-64
2022/01/25 03:03:59;;;;;;;56.80;34.90;;;4.70;99.90;;;;;;5041051;28;20061;-64
2022/01/25 03:06:25;;;;;;;55.58;33.50;;;4.70;99.90;;;;;;5040924;28;20052;-64
2022/01/25 03:08:52;;;;;;;56.88;34.42;;;4.70;99.90;;;;;;5040509;28;20041;-64
2022/01/25 03:11:20;;;;;;;58.55;35.72;;;4.70;99.90;;;;;;5040771;28;20125;-64
2022/01/25 03:16:30;;;;;;;56.25;34.42;;;4.70;99.90;;;;;;5040929;28;20100;-64
2022/01/25 03:18:57;;;;;;;60.88;34.00;;;4.70;99.90;;;;;;5040640;28;20109;-64
2022/01/25 03:23:53;;;;;;;61.88;35.88;;;4.70;99.90;;;;;;5040382;28;20115;-64
2022/01/25 03:26:19;;;;;;;;;;;4.70;99.90;;;;;;5044715;28;20391;-64
2022/01/25 03:28:45;;;;;;;56.40;34.00;;;4.70;99.90;;;;;;5044673;28;19980;-65
2022/01/25 03:31:11;;;;;;;57.30;35.58;;;4.70;99.90;;;;;;5041702;28;20088;-64
2022/01/25 03:33:37;;;;;;;57.55;34.22;;;4.70;99.90;;;;;;5024870;28;20038;-64
2022/01/25 03:36:04;;;;;;;57.30;34.30;;;4.70;99.90;;;;;;5024958;28;20042;-64
2022/01/25 03:38:30;;;;;;;58.85;35.38;;;4.70;99.90;;;;;;5041730;28;20073;-64
2022/01/25 03:40:56;;;;;;;58.85;35.38;;;4.70;99.90;;;;;;5045990;28;20045;-64
2022/01/25 03:43:22;;;;;;;56.25;35.38;;;4.70;99.90;;;;;;5044332;28;20077;-64
2022/01/25 03:46:06;;;;;;;62.42;35.15;;;4.70;99.90;;;;;;5045989;28;20049;-64
2022/01/25 03:50:57;;;;;;;57.53;34.35;;;4.70;99.90;;;;;;5044183;28;20087;-64
2022/01/25 03:53:23;;;;;;;58.90;34.67;;;4.70;99.90;;;;;;5027472;28;20459;-64
2022/01/25 03:55:48;;;;;;;59.85;34.67;;;4.70;99.90;;;;;;5060924;28;20091;-64
2022/01/25 03:58:14;;;;;;;65.70;35.75;;;4.70;99.90;;;;;;5044344;28;20389;-65
2022/01/25 04:00:43;;;;;;;68.70;37.67;;;4.80;99.90;;;;;;5044374;28;20124;-64
2022/01/25 04:03:23;;;;;;;62.13;35.78;;;4.70;99.90;;;;;;5051123;28;20297;-64
2022/01/25 04:05:51;;;;;;;64.10;35.38;;;4.70;99.90;;;;;;5040978;28;20048;-65
2022/01/25 04:08:19;;;;;;;58.45;34.83;;;4.70;99.90;;;;;;5043890;28;20090;-64
2022/01/25 04:10:45;;;;;;;64.60;35.80;;;4.80;99.90;;;;;;5043954;28;20048;-64
2022/01/25 04:13:10;;;;;;;62.03;37.72;;;4.80;99.90;;;;;;5045196;28;20049;-65
2022/01/25 04:15:41;;;;;;;62.00;36.23;;;4.70;99.90;;;;;;5043495;28;20064;-64
2022/01/25 04:20:58;;;;;;;56.80;34.25;;;4.70;99.90;;;;;;5029066;28;20057;-65
2022/01/25 04:26:08;;;;;;;58.70;36.17;;;4.70;99.90;;;;;;5045369;28;20096;-64
2022/01/25 04:28:33;;;;;;;59.85;36.65;;;4.70;99.90;;;;;;5044773;28;20120;-64
2022/01/25 04:30:59;;;;;;;64.27;37.60;;;4.70;99.90;;;;;;5043961;28;20046;-64
2022/01/25 04:33:38;;;;;;;60.08;35.67;;;4.70;99.90;;;;;;5044911;28;20327;-65
2022/01/25 04:49:36;;;;;;;61.15;36.05;;;4.70;99.90;;;;;;5025110;28;20133;-64
2022/01/25 04:52:09;;;;;;;64.53;35.80;;;4.60;99.90;;;;;;5027953;28;20200;-64
2022/01/25 04:59:44;;;;;;;;;;;4.70;99.90;;;;;;5045118;28;20621;-64
2022/01/25 05:02:18;;;;;;;56.40;33.88;;;4.60;99.90;;;;;;5043202;28;19932;-64
2022/01/25 05:04:50;;;;;;;65.18;36.47;;;4.70;99.90;;;;;;5044297;28;20099;-65
2022/01/25 05:07:37;;;;;;;62.38;36.13;;;4.70;99.90;;;;;;5044268;28;20042;-64
2022/01/25 05:10:04;;;;;;;61.67;36.38;;;4.70;99.90;;;;;;5044311;28;20046;-65
2022/01/25 05:12:44;;;;;;;65.15;34.88;;;4.70;99.90;;;;;;5042415;28;20049;-65
2022/01/25 05:23:15;;;;;;;64.97;37.50;;;4.70;99.90;;;;;;5050652;28;20451;-64
2022/01/25 05:25:40;;;;;;;58.67;35.33;;;4.70;99.90;;;;;;5063122;28;20054;-65
2022/01/25 05:28:06;;;;;;;57.90;35.03;;;4.70;99.90;;;;;;5044672;28;20283;-65
2022/01/25 05:30:32;;;;;;;56.57;34.23;;;4.70;99.90;;;;;;5061721;28;20072;-64
2022/01/25 05:32:58;;;;;;;60.63;34.95;;;4.70;99.90;;;;;;5044684;28;20398;-64
2022/01/25 05:35:23;;;;;;;59.10;34.93;;;4.70;99.90;;;;;;5074490;28;20120;-64
2022/01/25 05:37:49;;;;;;;61.80;34.80;;;4.70;99.90;;;;;;5064339;28;20287;-64
2022/01/25 05:40:26;;;;;;;64.13;35.70;;;4.80;99.90;;;;;;5081344;28;20526;-65
2022/01/25 05:48:12;;;;;;;59.05;33.60;;;4.70;99.90;;;;;;5060359;28;20095;-64
2022/01/25 05:50:37;;;;;;;;;;;4.80;99.90;;;;;;5061586;28;20045;-65
2022/01/25 05:53:03;;;;;;;61.75;33.33;;;4.70;99.90;;;;;;5060454;28;19974;-65
2022/01/25 05:55:30;;;;;;;62.38;35.17;;;4.70;99.90;;;;;;5044602;28;20050;-64
2022/01/25 05:57:55;;;;;;;59.00;33.55;;;4.80;99.90;;;;;;5041962;28;20053;-64
2022/01/25 06:00:21;;;;;;;59.10;34.40;;;4.80;99.90;;;;;;5042022;28;20061;-65
2022/01/25 06:02:52;;;;;;;59.03;33.85;;;4.80;99.90;;;;;;5041650;28;20056;-64
2022/01/25 06:05:18;;;;;;;56.67;34.63;;;4.80;99.90;;;;;;5042009;28;20101;-64
2022/01/25 06:07:44;;;;;;;58.83;34.33;;;4.80;99.90;;;;;;5041667;28;20101;-64
2022/01/25 06:10:10;;;;;;;58.73;34.73;;;4.80;99.90;;;;;;5041633;28;20314;-64
2022/01/25 06:12:35;;;;;;;60.07;36.00;;;4.70;99.90;;;;;;5043028;28;20129;-64
2022/01/25 06:15:01;;;;;;;58.42;34.10;;;4.80;99.90;;;;;;5041427;28;20132;-64
2022/01/25 06:17:27;;;;;;;59.08;35.78;;;4.80;99.90;;;;;;5041615;28;20125;-64
2022/01/25 06:19:52;;;;;;;64.87;38.20;;;4.70;99.90;;;;;;5041343;28;20045;-64
2022/01/25 06:22:18;;;;;;;60.17;33.90;;;4.70;99.90;;;;;;5042764;28;20030;-64
2022/01/25 06:24:44;;;;;;;58.17;35.27;;;4.80;99.90;;;;;;5058015;28;20338;-65
2022/01/25 06:27:10;;;;;;;58.60;34.20;;;4.70;99.90;;;;;;5042982;28;20459;-65
2022/01/25 06:29:36;;;;;;;56.15;34.72;;;4.80;99.90;;;;;;5042588;28;20284;-65
2022/01/25 06:32:02;;;;;;;62.45;34.95;;;4.80;99.90;;;;;;5042503;28;20046;-65
2022/01/25 06:34:27;;;;;;;60.45;34.72;;;4.80;99.90;;;;;;5041396;28;20200;-65
2022/01/25 06:36:54;;;;;;;58.05;33.92;;;4.80;99.90;;;;;;5041407;28;20061;-62
2022/01/25 06:39:20;;;;;;;59.97;35.30;;;4.90;99.90;;;;;;5042987;28;20053;-71
2022/01/25 06:41:46;;;;;;;61.70;35.20;;;4.80;99.90;;;;;;5042504;28;20103;-70
2022/01/25 06:44:12;;;;;;;60.78;36.33;;;4.80;99.90;;;;;;5021184;28;20305;-66
2022/01/25 06:46:38;;;;;;;59.57;34.83;;;4.80;99.90;;;;;;5041474;28;20041;-67
2022/01/25 06:49:04;;;;;;;68.47;37.13;;;4.80;99.90;;;;;;5057849;28;20339;-66
2022/01/25 06:51:30;;;;;;;62.53;36.05;;;4.80;99.90;;;;;;5050406;28;20465;-65
2022/01/25 06:53:55;;;;;;;62.42;35.58;;;4.90;99.90;;;;;;5050090;28;20037;-67
2022/01/25 06:56:21;;;;;;;64.13;37.33;;;4.90;99.90;;;;;;5047014;28;20162;-67
2022/01/25 06:58:47;;;;;;;63.97;34.83;;;4.90;99.90;;;;;;5041671;28;20360;-68
2022/01/25 07:01:12;;;;;;;58.57;34.47;;;4.90;99.90;;;;;;5007827;28;20072;-66
2022/01/25 07:03:38;;;;;;;57.97;34.17;;;4.80;99.90;;;;;;5041278;28;20081;-67
2022/01/25 07:06:04;;;;;;;66.00;36.70;;;4.80;99.90;;;;;;5046248;28;20276;-65
2022/01/25 07:08:29;;;;;;;63.50;35.87;;;4.90;99.90;;;;;;5024167;28;20053;-65
2022/01/25 07:10:55;;;;;;;57.77;34.30;;;4.80;99.90;;;;;;5040959;28;20371;-65
2022/01/25 07:13:21;;;;;;;62.33;34.77;;;4.90;99.90;;;;;;5042158;28;20323;-66
2022/01/25 07:15:47;;;;;;;62.47;37.15;;;4.80;99.90;;;;;;5057236;28;20060;-66
2022/01/25 07:18:15;;;;;;;62.95;35.13;;;4.80;99.90;;;;;;5054407;28;20064;-67
2022/01/25 07:20:41;;;;;;;58.72;34.17;;;4.80;99.90;;;;;;5057050;28;20054;-66
2022/01/25 07:23:06;;;;;;;69.65;37.15;;;4.80;99.90;;;;;;5023864;28;20041;-65
2022/01/25 07:25:32;;;;;;;63.83;35.10;;;4.80;99.90;;;;;;5042075;28;20087;-63
2022/01/25 07:27:58;;;;;;;61.92;36.08;;;4.80;99.90;;;;;;5041283;28;20080;-68
2022/01/25 07:30:24;;;;;;;63.03;36.33;;;4.80;99.90;;;;;;5024794;28;20049;-67
2022/01/25 07:32:49;;;;;;;69.72;35.38;;;4.80;99.90;;;;;;5040725;28;20096;-67
2022/01/25 07:35:15;;;;;;;65.20;37.27;;;4.80;99.90;;;;;;5042655;28;20132;-69
2022/01/25 07:37:41;;;;;;;64.60;36.38;;;4.80;99.90;;;;;;5041201;28;20069;-68
2022/01/25 07:40:07;;;;;;;64.40;36.78;;;4.80;99.90;;;;;;5023898;28;20066;-68
2022/01/25 07:42:36;;;;;;;63.75;36.53;;;4.80;99.90;;;;;;5040423;28;20064;-67
2022/01/25 07:45:07;;;;;;;61.28;36.25;;;4.80;99.90;;;;;;5035342;28;20042;-68
2022/01/25 07:47:34;;;;;;;65.78;38.25;;;4.80;99.90;;;;;;5040808;28;20054;-67
2022/01/25 07:50:00;;;;;;;66.68;37.00;;;4.80;99.90;;;;;;5039905;28;20057;-68
2022/01/25 07:52:25;;;;;;;65.03;38.03;;;4.80;99.90;;;;;;5039610;28;20113;-66
2022/01/25 07:54:51;;;;;;;63.90;37.47;;;4.80;99.90;;;;;;5040909;28;20048;-66
2022/01/25 07:57:17;;;;;;;71.85;38.08;;;4.80;99.90;;;;;;5044631;28;20045;-67
2022/01/25 07:59:42;;;;;;;69.13;35.13;;;4.80;99.90;;;;;;5024580;28;20049;-69
2022/01/25 08:02:14;;;;;;;62.17;36.50;;;4.80;99.90;;;;;;5031347;28;20057;-69
2022/01/25 08:04:40;;;;;;;63.08;35.42;;;4.80;99.90;;;;;;5039890;28;20072;-66
2022/01/25 08:07:06;;;;;;;63.40;36.88;;;4.80;99.90;;;;;;5041372;28;20095;-67
2022/01/25 08:09:32;;;;;;;64.88;37.45;;;4.80;99.90;;;;;;5007070;28;20137;-70
2022/01/25 08:11:58;;;;;;;61.80;37.43;;;4.80;99.90;;;;;;5045384;28;20036;-67
2022/01/25 08:14:23;;;;;;;62.23;35.67;;;4.70;99.90;;;;;;5043774;28;20099;-68
2022/01/25 08:16:51;;;;;;;61.87;35.90;;;4.80;99.90;;;;;;5060886;28;20346;-68
2022/01/25 08:19:18;;;;;;;64.57;37.80;;;4.80;99.90;;;;;;5045607;28;20110;-67
2022/01/25 08:21:44;;;;;;;62.75;36.55;;;4.80;99.90;;;;;;5060401;28;20064;-67
2022/01/25 08:24:11;;;;;;;67.82;36.88;;;4.80;99.90;;;;;;5043604;28;20109;-68
2022/01/25 08:26:37;;;;;;;66.60;37.15;;;4.80;99.90;;;;;;5043890;28;20052;-67
2022/01/25 08:29:05;;;;;;;64.68;36.20;;;4.80;99.90;;;;;;5044222;28;20187;-68
2022/01/25 08:31:31;;;;;;;70.18;38.25;;;4.80;99.90;;;;;;5044986;28;20057;-68
2022/01/25 08:33:58;;;;;;;66.28;35.83;;;4.80;99.90;;;;;;5042964;28;20050;-68
2022/01/25 08:36:23;;;;;;;73.38;38.53;;;4.80;99.90;;;;;;5045378;28;20041;-67
2022/01/25 08:38:49;;;;;;;69.63;38.10;;;4.80;99.90;;;;;;5045093;28;20037;-67
2022/01/25 08:41:17;;;;;;;69.60;40.00;;;4.80;99.90;;;;;;5043764;28;20093;-68
2022/01/25 08:43:43;;;;;;;74.00;39.63;;;4.80;99.90;;;;;;5044986;28;20049;-69
2022/01/25 08:46:09;;;;;;;67.68;38.65;;;4.80;99.90;;;;;;5035007;28;20052;-66
2022/01/25 08:48:35;;;;;;;67.30;38.03;;;4.80;99.90;;;;;;5043651;28;20130;-67
2022/01/25 08:51:01;;;;;;;63.50;37.50;;;4.80;99.90;;;;;;5045192;28;20038;-64
2022/01/25 08:53:27;;;;;;;75.47;40.83;;;4.80;99.90;;;;;;5059394;28;20041;-66
2022/01/25 08:55:53;;;;;;;73.13;38.72;;;4.80;99.90;;;;;;5044859;28;20061;-67
2022/01/25 08:58:19;;;;;;;68.35;39.13;;;4.80;99.90;;;;;;5044722;28;20465;-66
2022/01/25 09:00:45;;;;;;;66.57;38.57;;;4.80;99.90;;;;;;5045753;28;20063;-66
2022/01/25 09:03:12;;;;;;;74.53;37.88;;;4.80;99.90;;;;;;5050993;28;20321;-67
2022/01/25 09:05:38;;;;;;;67.43;40.17;;;4.80;99.90;;;;;;5051164;28;20413;-67
2022/01/25 09:08:05;;;;;;;63.80;37.40;;;4.80;99.90;;;;;;5042920;28;20053;-67
2022/01/25 09:10:32;;;;;;;64.75;38.47;;;4.80;99.90;;;;;;5044518;28;20328;-64
2022/01/25 09:12:57;;;;;;;68.60;39.10;;;4.80;99.90;;;;;;5043040;28;20412;-67
2022/01/25 09:15:23;;;;;;;68.70;37.80;;;4.80;99.90;;;;;;5042593;28;20081;-67
2022/01/25 09:17:49;;;;;;;67.32;37.38;;;4.80;99.90;;;;;;5042396;28;20056;-66
2022/01/25 09:20:16;;;;;;;70.38;38.22;;;4.80;99.90;;;;;;5042949;28;20212;-69
2022/01/25 09:22:41;;;;;;;73.20;39.03;;;4.80;99.90;;;;;;5042902;28;20052;-68
2022/01/25 09:25:09;;;;;;;70.17;37.60;;;4.80;99.90;;;;;;5043904;28;20045;-66
2022/01/25 09:27:36;;;;;;;67.18;37.70;;;4.80;99.90;;;;;;5044349;28;20053;-67
2022/01/25 09:30:03;;;;;;;69.68;38.78;;;4.80;99.90;;;;;;5042476;28;20488;-66
2022/01/25 09:32:29;;;;;;;65.10;38.40;;;4.90;99.90;;;;;;5043604;28;20053;-67
2022/01/25 09:34:54;;;;;;;66.07;37.10;;;4.80;99.90;;;;;;5042265;28;20049;-67
2022/01/25 09:37:20;;;;;;;72.13;37.57;;;4.80;99.90;;;;;;5043953;28;20041;-67
2022/01/25 09:39:46;;;;;;;66.53;38.75;;;4.80;99.90;;;;;;5042162;28;20448;-68
2022/01/25 09:42:11;;;;;;;67.17;37.57;;;4.80;99.90;;;;;;5052542;28;20086;-67
2022/01/25 09:44:39;;;;;;;71.40;38.20;;;4.80;99.90;;;;;;5040036;28;20087;-68
2022/01/25 09:47:07;;;;;;;68.90;38.80;;;4.80;99.90;;;;;;5033170;28;20299;-64
2022/01/25 09:49:33;;;;;;;65.28;37.03;;;4.80;99.90;;;;;;5053248;28;20093;-66
2022/01/25 09:52:05;;;;;;;74.22;39.47;;;4.80;99.90;;;;;;5060626;28;20041;-65
2022/01/25 09:54:32;;;;;;;70.88;39.38;;;4.80;99.90;;;;;;5050428;28;20127;-68
2022/01/25 09:56:58;;;;;;;;;;;4.80;99.90;;;;;;5062482;28;20045;-62
2022/01/25 09:59:26;;;;;;;69.47;37.65;;;4.70;99.90;;;;;;5078449;28;19920;-66
2022/01/25 10:01:53;;;;;;;72.43;38.70;;;4.80;99.90;;;;;;5060980;28;20060;-68
2022/01/25 10:04:41;;;;;;;71.03;39.15;;;4.80;99.90;;;;;;5041543;28;20045;-68
2022/01/25 10:07:09;;;;;;;72.03;38.78;;;4.80;99.90;;;;;;5041806;28;20068;-68
2022/01/25 10:09:39;;;;;;;75.25;39.22;;;4.90;99.90;;;;;;5043352;28;20071;-68
2022/01/25 10:12:25;;;;;;;73.80;39.95;;;4.90;99.90;;;;;;5005494;28;20053;-68
2022/01/25 10:15:00;;;;;;;67.10;38.58;;;4.80;99.90;;;;;;5039907;28;20057;-67
2022/01/25 10:17:34;;;;;;;69.68;38.28;;;4.90;99.90;;;;;;5041629;28;20438;-68
2022/01/25 10:20:00;;;;;;;70.03;38.10;;;4.90;99.90;;;;;;5024987;28;20057;-67
2022/01/25 10:22:26;;;;;;;68.90;38.83;;;4.90;99.90;;;;;;5042844;28;20052;-68
2022/01/25 10:24:52;;;;;;;77.50;37.38;;;4.90;99.90;;;;;;5042460;28;20053;-68
2022/01/25 10:27:57;;;;;;;66.07;38.00;;;4.90;99.90;;;;;;5041532;28;20064;-68
2022/01/25 10:30:08;;;;;;;70.13;37.65;;;4.90;99.90;;;;;;5057938;28;20112;-68
2022/01/25 10:32:35;;;;;;;71.75;37.97;;;4.90;99.90;;;;;;5042501;28;20196;-68
2022/01/25 10:35:12;;;;;;;76.38;38.60;;;4.90;99.90;;;;;;5040739;28;20083;-68
2022/01/25 10:37:41;;;;;;;73.13;39.72;;;4.90;99.90;;;;;;5041284;28;20053;-67
2022/01/25 10:40:08;;;;;;;72.38;39.00;;;4.90;99.90;;;;;;5049987;28;20038;-68
2022/01/25 10:42:38;;;;;;;73.72;38.00;;;4.90;99.90;;;;;;5050699;28;20045;-67
2022/01/25 10:45:10;;;;;;;73.65;38.35;;;4.90;99.90;;;;;;5046842;28;20090;-67
2022/01/25 10:47:49;;;;;;;73.35;38.80;;;4.90;99.90;;;;;;5048480;28;20127;-67
2022/01/25 10:50:22;;;;;;;67.10;37.55;;;4.90;99.90;;;;;;5049338;28;20059;-68
2022/01/25 10:53:09;;;;;;;79.57;39.10;;;4.90;99.90;;;;;;5049447;28;20041;-68
2022/01/25 10:55:40;;;;;;;77.00;38.78;;;4.90;99.90;;;;;;5040110;28;20057;-67
2022/01/25 10:58:07;;;;;;;70.38;39.05;;;4.90;99.90;;;;;;5043432;28;20067;-68
2022/01/25 11:00:35;;;;;;;73.22;39.08;;;4.90;99.90;;;;;;5054217;28;20052;-68
2022/01/25 11:03:04;;;;;;;74.43;40.67;;;4.90;99.90;;;;;;5057571;28;20041;-68
2022/01/25 11:05:43;;;;;;;66.40;38.22;;;4.90;99.90;;;;;;5048128;28;20129;-68
2022/01/25 11:08:14;;;;;;;76.25;38.75;;;4.90;99.90;;;;;;5045140;28;20720;-68
2022/01/25 11:10:52;;;;;;;74.55;39.85;;;4.90;99.90;;;;;;5051385;28;20133;-69
2022/01/25 11:13:34;;;;;;;73.35;40.20;;;4.90;99.90;;;;;;5049979;28;20052;-67
2022/01/25 11:16:02;;;;;;;74.90;39.42;;;4.90;99.90;;;;;;5046790;28;20121;-64
2022/01/25 11:18:31;;;;;;;78.13;39.08;;;4.80;99.90;;;;;;5040794;28;20057;-66
2022/01/25 11:20:59;;;;;;;79.30;39.67;;;4.90;99.90;;;;;;5040449;28;20063;-66
2022/01/25 11:23:24;;;;;;;73.88;39.00;;;4.90;99.90;;;;;;5041914;28;20049;-66
2022/01/25 11:25:53;;;;;;;76.40;40.15;;;4.90;99.90;;;;;;5042220;28;20056;-66
2022/01/25 11:28:19;;;;;;;81.10;40.38;;;4.90;99.90;;;;;;5040414;28;20092;-66
2022/01/25 11:30:47;;;;;;;77.00;40.22;;;4.90;99.90;;;;;;5040752;28;20147;-66
2022/01/25 11:33:14;;;;;;;75.72;39.17;;;4.90;99.90;;;;;;5024529;28;20050;-66
2022/01/25 11:35:41;;;;;;;80.65;39.88;;;4.90;99.90;;;;;;5048174;28;20059;-66
2022/01/25 11:38:07;;;;;;;;;;;4.90;99.90;;;;;;5056248;28;20051;-66
2022/01/25 11:40:39;;;;;;;77.25;38.17;;;4.80;99.90;;;;;;5050986;28;19944;-66
2022/01/25 11:43:10;;;;;;;74.25;39.83;;;4.90;99.90;;;;;;5049121;28;20059;-67
2022/01/25 11:45:45;;;;;;;79.22;40.25;;;4.90;99.90;;;;;;5047317;28;20060;-68
2022/01/25 11:48:11;;;;;;;83.38;39.33;;;4.90;99.90;;;;;;5053419;28;20072;-69
2022/01/25 11:50:39;;;;;;;75.28;40.25;;;4.90;99.90;;;;;;5055011;28;20048;-69
2022/01/25 11:53:13;;;;;;;71.97;38.72;;;5.00;99.90;;;;;;5054764;28;20057;-70
2022/01/25 11:55:47;;;;;;;76.22;38.42;;;4.90;99.90;;;;;;5053507;28;20096;-69
2022/01/25 11:58:21;;;;;;;79.03;40.15;;;4.90;99.90;;;;;;5060049;28;20046;-65
2022/01/25 12:00:52;;;;;;;78.22;40.67;;;4.90;99.90;;;;;;5045790;28;20052;-69
2022/01/25 12:03:44;;;;;;;77.28;40.85;;;4.90;99.90;;;;;;5045599;28;20038;-65
2022/01/25 12:06:17;;;;;;;76.40;39.85;;;4.90;99.90;;;;;;5043593;28;20437;-66
2022/01/25 12:11:45;;;;;;;75.88;39.58;;;4.90;99.90;;;;;;5051671;28;20058;-65
2022/01/25 12:14:25;;;;;;;78.25;40.17;;;4.90;99.90;;;;;;5049701;28;20103;-64
2022/01/25 12:16:57;;;;;;;72.72;39.25;;;4.90;99.90;;;;;;5045509;28;20053;-64
2022/01/25 12:19:47;;;;;;;80.28;39.85;;;5.00;99.90;;;;;;5044356;28;20045;-69
2022/01/25 12:22:28;;;;;;;74.55;39.15;;;4.90;99.90;;;;;;5045383;28;20465;-64
2022/01/25 12:25:12;;;;;;;85.25;41.75;;;4.90;99.90;;;;;;5041076;28;20124;-65
2022/01/25 12:27:47;;;;;;;87.53;41.10;;;4.90;99.90;;;;;;5041117;28;20107;-65
2022/01/25 12:30:25;;;;;;;82.78;40.95;;;4.90;99.90;;;;;;5040942;28;20089;-65
2022/01/25 12:33:03;;;;;;;80.03;38.72;;;4.90;99.90;;;;;;5056631;28;20396;-65
2022/01/25 12:35:57;;;;;;;76.85;39.70;;;4.90;99.90;;;;;;5059101;28;20152;-65
2022/01/25 12:38:37;;;;;;;77.68;39.40;;;5.00;99.90;;;;;;5038317;28;20061;-66
2022/01/25 12:41:22;;;;;;;83.00;41.55;;;4.90;99.90;;;;;;5025506;28;20060;-69
2022/01/25 12:43:56;;;;;;;81.03;41.15;;;4.90;99.90;;;;;;5047464;28;20089;-68
2022/01/25 12:46:39;;;;;;;75.20;38.95;;;4.90;99.90;;;;;;5049966;28;20056;-67
2022/01/25 12:49:10;;;;;;;79.18;39.72;;;4.90;99.90;;;;;;5039456;28;20049;-66
2022/01/25 12:51:39;;;;;;;75.93;37.67;;;4.90;99.90;;;;;;5034056;28;20088;-66
2022/01/25 12:54:10;;;;;;;77.55;39.10;;;4.90;99.90;;;;;;5056659;28;20085;-66
2022/01/25 12:56:44;;;;;;;80.40;41.28;;;4.90;99.90;;;;;;5042677;28;20329;-65
2022/01/25 12:59:22;;;;;;;80.25;41.17;;;4.90;99.90;;;;;;5043243;28;20064;-65
2022/01/25 13:01:50;;;;;;;76.47;39.28;;;4.90;99.90;;;;;;5043228;28;20544;-65
2022/01/25 13:04:16;;;;;;;81.05;39.72;;;4.90;99.90;;;;;;5044677;28;20041;-65
2022/01/25 13:06:46;;;;;;;81.00;39.88;;;4.90;99.90;;;;;;5043015;28;20053;-65
2022/01/25 13:16:57;;;;;;;74.25;39.17;;;5.00;99.90;;;;;;5042605;28;20072;-63
2022/01/25 13:19:26;;;;;;;78.35;38.53;;;5.00;99.90;;;;;;5044014;28;20050;-67
2022/01/25 13:21:59;;;;;;;84.07;42.70;;;5.00;99.90;;;;;;5042880;28;20050;-67
2022/01/25 13:24:29;;;;;;;79.78;38.53;;;5.00;99.90;;;;;;5042491;28;20113;-67
2022/01/25 13:26:55;;;;;;;76.32;39.80;;;5.00;99.90;;;;;;5048268;28;20064;-66
2022/01/25 13:32:13;;;;;;;81.25;40.15;;;5.00;99.90;;;;;;5044321;28;20191;-68
2022/01/25 13:34:39;;;;;;;79.32;40.00;;;5.00;99.90;;;;;;5043447;28;20068;-68
2022/01/25 13:37:05;;;;;;;76.88;40.00;;;5.00;99.90;;;;;;5043417;28;20425;-68
2022/01/25 13:39:34;;;;;;;81.63;38.72;;;5.00;99.90;;;;;;5050089;28;20047;-65
2022/01/25 13:42:10;;;;;;;74.32;39.00;;;5.00;99.90;;;;;;5042831;28;20411;-67
2022/01/25 13:47:21;;;;;;;78.00;38.95;;;5.00;99.90;;;;;;5023999;28;20064;-69
2022/01/25 13:49:50;;;;;;;74.47;39.05;;;5.00;99.90;;;;;;5022432;28;20459;-62
2022/01/25 13:52:16;;;;;;;74.57;38.90;;;5.00;99.90;;;;;;5043058;28;20068;-69
2022/01/25 13:54:42;;;;;;;80.45;40.97;;;5.00;99.90;;;;;;5041873;28;20113;-69
2022/01/25 13:57:10;;;;;;;88.85;40.80;;;5.00;99.90;;;;;;5043742;28;20037;-70
2022/01/25 13:59:37;;;;;;;69.00;39.20;;;5.00;99.90;;;;;;5025805;28;20076;-69
2022/01/25 14:02:03;;;;;;;76.28;38.35;;;5.00;99.90;;;;;;5042065;28;20077;-70
2022/01/25 14:04:29;;;;;;;;;;;5.00;99.90;;;;;;5044036;28;20056;-71
2022/01/25 14:07:01;;;;;;;74.80;37.83;;;4.90;99.90;;;;;;5042100;28;20015;-70
2022/01/25 14:09:34;;;;;;;77.47;38.85;;;4.90;99.90;;;;;;5042315;28;20052;-69
2022/01/25 14:25:48;;;;;;;79.57;40.50;;;4.80;99.90;;;;;;5041940;28;20054;-66
2022/01/25 14:28:20;;;;;;;73.82;38.08;;;4.80;99.90;;;;;;5041651;28;20120;-66
2022/01/25 14:30:52;;;;;;;78.13;40.50;;;4.90;99.90;;;;;;5041998;28;20134;-66
2022/01/25 14:33:22;;;;;;;76.32;39.42;;;4.90;99.90;;;;;;5041483;28;20078;-66
2022/01/25 14:35:56;;;;;;;78.13;38.25;;;4.90;99.90;;;;;;5058234;28;20138;-65
2022/01/25 14:38:37;;;;;;;76.72;40.03;;;4.90;99.90;;;;;;5041146;28;20111;-66
2022/01/25 14:41:23;;;;;;;72.28;36.92;;;4.90;99.90;;;;;;5041667;28;20092;-66
2022/01/25 14:43:52;;;;;;;76.97;39.00;;;4.90;99.90;;;;;;5042663;28;20205;-65
2022/01/25 14:46:35;;;;;;;75.80;38.20;;;4.90;99.90;;;;;;5025237;28;20049;-65
2022/01/25 14:49:05;;;;;;;76.35;39.00;;;4.90;99.90;;;;;;5037849;28;20054;-65
2022/01/25 14:51:43;;;;;;;75.65;39.72;;;4.90;99.90;;;;;;5021581;28;20480;-65
2022/01/25 14:54:13;;;;;;;70.97;37.80;;;4.90;99.90;;;;;;5042259;28;20049;-65
2022/01/25 14:56:50;;;;;;;83.55;40.15;;;4.90;99.90;;;;;;5041292;28;20041;-64
2022/01/25 14:59:28;;;;;;;80.80;41.00;;;4.80;99.90;;;;;;5042456;28;20117;-65
2022/01/25 15:02:09;;;;;;;76.60;39.63;;;4.90;99.90;;;;;;5040603;28;20053;-64
2022/01/25 15:04:38;;;;;;;83.32;40.33;;;4.90;99.90;;;;;;5040259;28;20042;-64
2022/01/25 15:07:10;;;;;;;76.63;39.90;;;4.90;99.90;;;;;;5042102;28;20165;-68
2022/01/25 15:09:37;;;;;;;75.88;40.00;;;4.90;99.90;;;;;;5040571;28;20049;-73
2022/01/25 15:12:02;;;;;;;77.38;41.22;;;4.80;99.90;;;;;;5026649;28;20491;-72